sensor_id;sensor_type;location;lat;lon;timestamp;pressure;altitude;pressure_sealevel;temperature;humidity
829;BME280;396;52.558;13.188;2023-07-24T00:01:29;100093.31;;;19.53;90.41
829;BME280;396;52.558;13.188;2023-07-24T00:03:56;100094.91;;;19.54;90.17
829;BME280;396;52.558;13.188;2023-07-24T00:06:24;100087.81;;;19.53;89.07
829;BME280;396;52.558;13.188;2023-07-24T00:08:51;100085.13;;;19.57;89.38
829;BME280;396;52.558;13.188;2023-07-24T00:11:19;100088.28;;;19.59;89.14
829;BME280;396;52.558;13.188;2023-07-24T00:13:45;100083.97;;;19.58;89.00
829;BME280;396;52.558;13.188;2023-07-24T00:16:12;100083.97;;;19.58;88.77
829;BME280;396;52.558;13.188;2023-07-24T00:18:38;100084.44;;;19.63;88.23
829;BME280;396;52.558;13.188;2023-07-24T00:21:06;100074.28;;;19.68;86.85
829;BME280;396;52.558;13.188;2023-07-24T00:23:33;100084.56;;;19.74;86.87
829;BME280;396;52.558;13.188;2023-07-24T00:25:59;100079.88;;;19.78;87.24
829;BME280;396;52.558;13.188;2023-07-24T00:28:27;100081.06;;;19.77;86.95
829;BME280;396;52.558;13.188;2023-07-24T00:30:54;100076.81;;;19.83;85.12
829;BME280;396;52.558;13.188;2023-07-24T00:33:21;100078.06;;;19.89;85.13
829;BME280;396;52.558;13.188;2023-07-24T00:35:48;100076.19;;;19.97;84.00
829;BME280;396;52.558;13.188;2023-07-24T00:38:14;100067.94;;;20.01;83.32
829;BME280;396;52.558;13.188;2023-07-24T00:40:41;100071.22;;;20.10;83.18
829;BME280;396;52.558;13.188;2023-07-24T00:43:07;100069.25;;;20.14;84.14
829;BME280;396;52.558;13.188;2023-07-24T00:45:35;100057.91;;;20.15;82.33
829;BME280;396;52.558;13.188;2023-07-24T00:48:02;100053.97;;;20.16;82.10
829;BME280;396;52.558;13.188;2023-07-24T00:50:29;100055.53;;;20.17;83.48
829;BME280;396;52.558;13.188;2023-07-24T00:52:57;100054.38;;;20.15;85.25
829;BME280;396;52.558;13.188;2023-07-24T00:55:24;100056.28;;;20.11;85.88
829;BME280;396;52.558;13.188;2023-07-24T00:57:51;100050.72;;;20.04;86.23
829;BME280;396;52.558;13.188;2023-07-24T01:00:18;100040.44;;;19.97;86.52
829;BME280;396;52.558;13.188;2023-07-24T01:02:47;100034.13;;;19.93;87.20
829;BME280;396;52.558;13.188;2023-07-24T01:05:14;100029.75;;;19.88;88.16
829;BME280;396;52.558;13.188;2023-07-24T01:07:41;100030.91;;;19.87;87.65
829;BME280;396;52.558;13.188;2023-07-24T01:10:08;100036.00;;;19.85;88.11
829;BME280;396;52.558;13.188;2023-07-24T01:12:37;100024.59;;;19.83;88.17
829;BME280;396;52.558;13.188;2023-07-24T01:15:08;100028.44;;;19.79;88.85
829;BME280;396;52.558;13.188;2023-07-24T01:17:40;100020.19;;;19.75;89.66
829;BME280;396;52.558;13.188;2023-07-24T01:20:11;100027.22;;;19.73;90.00
829;BME280;396;52.558;13.188;2023-07-24T01:22:46;100019.31;;;19.68;90.10
829;BME280;396;52.558;13.188;2023-07-24T01:25:21;100020.09;;;19.68;89.74
829;BME280;396;52.558;13.188;2023-07-24T01:27:50;100021.28;;;19.67;89.79
829;BME280;396;52.558;13.188;2023-07-24T01:30:18;100022.03;;;19.64;89.45
829;BME280;396;52.558;13.188;2023-07-24T01:32:45;100018.09;;;19.65;90.55
829;BME280;396;52.558;13.188;2023-07-24T01:35:12;100014.97;;;19.63;90.14
829;BME280;396;52.558;13.188;2023-07-24T01:37:39;100015.00;;;19.67;89.82
829;BME280;396;52.558;13.188;2023-07-24T01:40:07;100009.50;;;19.67;89.91
829;BME280;396;52.558;13.188;2023-07-24T01:42:35;100006.38;;;19.68;89.77
829;BME280;396;52.558;13.188;2023-07-24T01:45:04;100006.31;;;19.64;90.26
829;BME280;396;52.558;13.188;2023-07-24T01:47:32;100013.41;;;19.65;89.32
829;BME280;396;52.558;13.188;2023-07-24T01:49:59;100007.13;;;19.65;88.68
829;BME280;396;52.558;13.188;2023-07-24T01:52:26;100012.66;;;19.69;88.84
829;BME280;396;52.558;13.188;2023-07-24T01:54:52;100007.59;;;19.71;88.14
829;BME280;396;52.558;13.188;2023-07-24T01:57:19;100011.19;;;19.78;87.99
829;BME280;396;52.558;13.188;2023-07-24T01:59:46;100008.78;;;19.73;87.56
829;BME280;396;52.558;13.188;2023-07-24T02:02:15;99997.78;;;19.73;86.10
829;BME280;396;52.558;13.188;2023-07-24T02:04:42;100002.50;;;19.73;84.37
829;BME280;396;52.558;13.188;2023-07-24T02:07:09;99994.31;;;19.80;83.95
829;BME280;396;52.558;13.188;2023-07-24T02:09:36;99998.72;;;19.88;84.14
829;BME280;396;52.558;13.188;2023-07-24T02:12:03;100004.28;;;19.95;83.77
829;BME280;396;52.558;13.188;2023-07-24T02:14:30;99994.88;;;20.00;83.27
829;BME280;396;52.558;13.188;2023-07-24T02:16:56;99994.19;;;20.06;83.38
829;BME280;396;52.558;13.188;2023-07-24T02:19:24;99987.94;;;20.13;83.06
829;BME280;396;52.558;13.188;2023-07-24T02:21:51;99987.16;;;20.12;83.77
829;BME280;396;52.558;13.188;2023-07-24T02:24:17;99989.16;;;20.15;84.80
829;BME280;396;52.558;13.188;2023-07-24T02:26:44;99977.31;;;20.11;86.09
829;BME280;396;52.558;13.188;2023-07-24T02:29:11;99981.63;;;20.09;84.82
829;BME280;396;52.558;13.188;2023-07-24T02:31:38;99984.81;;;20.14;83.73
829;BME280;396;52.558;13.188;2023-07-24T02:34:04;99985.59;;;20.15;84.60
829;BME280;396;52.558;13.188;2023-07-24T02:36:32;99973.81;;;20.14;85.24
829;BME280;396;52.558;13.188;2023-07-24T02:38:59;99981.69;;;20.16;84.27
829;BME280;396;52.558;13.188;2023-07-24T02:41:26;99981.28;;;20.17;85.43
829;BME280;396;52.558;13.188;2023-07-24T02:43:52;99994.28;;;20.21;83.29
829;BME280;396;52.558;13.188;2023-07-24T02:46:19;100002.19;;;20.26;83.32
829;BME280;396;52.558;13.188;2023-07-24T02:48:45;100005.38;;;20.28;84.73
829;BME280;396;52.558;13.188;2023-07-24T02:51:12;100011.63;;;20.25;85.28
829;BME280;396;52.558;13.188;2023-07-24T02:53:40;100012.41;;;20.25;86.30
829;BME280;396;52.558;13.188;2023-07-24T02:56:07;100015.13;;;20.22;85.94
829;BME280;396;52.558;13.188;2023-07-24T02:58:33;100016.69;;;20.23;85.21
829;BME280;396;52.558;13.188;2023-07-24T03:01:03;100015.16;;;20.25;83.47
829;BME280;396;52.558;13.188;2023-07-24T03:03:31;100008.16;;;20.35;82.64
829;BME280;396;52.558;13.188;2023-07-24T03:05:58;100016.03;;;20.36;82.30
829;BME280;396;52.558;13.188;2023-07-24T03:08:25;100016.84;;;20.40;81.95
829;BME280;396;52.558;13.188;2023-07-24T03:10:53;100014.13;;;20.44;81.95
829;BME280;396;52.558;13.188;2023-07-24T03:13:19;100020.81;;;20.47;82.88
829;BME280;396;52.558;13.188;2023-07-24T03:15:51;100018.88;;;20.47;82.69
829;BME280;396;52.558;13.188;2023-07-24T03:18:18;100022.84;;;20.50;82.89
829;BME280;396;52.558;13.188;2023-07-24T03:20:45;100024.44;;;20.51;82.55
829;BME280;396;52.558;13.188;2023-07-24T03:23:12;100017.75;;;20.52;83.51
829;BME280;396;52.558;13.188;2023-07-24T03:25:38;100020.50;;;20.52;82.54
829;BME280;396;52.558;13.188;2023-07-24T03:28:06;100012.66;;;20.57;82.16
829;BME280;396;52.558;13.188;2023-07-24T03:30:33;100017.78;;;20.55;83.30
829;BME280;396;52.558;13.188;2023-07-24T03:33:00;100020.88;;;20.54;84.38
829;BME280;396;52.558;13.188;2023-07-24T03:35:27;100013.69;;;20.38;85.62
829;BME280;396;52.558;13.188;2023-07-24T03:37:53;100017.13;;;20.25;86.95
829;BME280;396;52.558;13.188;2023-07-24T03:40:20;100016.63;;;20.12;87.91
829;BME280;396;52.558;13.188;2023-07-24T03:42:47;100018.50;;;20.04;90.25
829;BME280;396;52.558;13.188;2023-07-24T03:45:14;100027.13;;;20.03;90.16
829;BME280;396;52.558;13.188;2023-07-24T03:47:41;100016.88;;;20.00;92.48
829;BME280;396;52.558;13.188;2023-07-24T03:50:08;100019.97;;;19.95;91.94
829;BME280;396;52.558;13.188;2023-07-24T03:52:35;100027.53;;;20.05;91.90
829;BME280;396;52.558;13.188;2023-07-24T03:55:02;100024.38;;;20.03;92.01
829;BME280;396;52.558;13.188;2023-07-24T03:57:29;100018.47;;;20.01;93.55
829;BME280;396;52.558;13.188;2023-07-24T03:59:55;100010.59;;;19.99;94.02
829;BME280;396;52.558;13.188;2023-07-24T04:02:23;100018.84;;;19.99;95.17
829;BME280;396;52.558;13.188;2023-07-24T04:04:50;100018.47;;;20.01;95.46
829;BME280;396;52.558;13.188;2023-07-24T04:07:16;100012.94;;;19.97;95.92
829;BME280;396;52.558;13.188;2023-07-24T04:09:43;100019.97;;;19.95;97.52
829;BME280;396;52.558;13.188;2023-07-24T04:12:10;100021.94;;;19.94;97.60
829;BME280;396;52.558;13.188;2023-07-24T04:14:36;100026.66;;;19.94;97.62
829;BME280;396;52.558;13.188;2023-07-24T04:17:03;100018.41;;;19.94;97.59
829;BME280;396;52.558;13.188;2023-07-24T04:19:31;100017.66;;;19.97;97.64
829;BME280;396;52.558;13.188;2023-07-24T04:21:58;100014.94;;;20.00;98.12
829;BME280;396;52.558;13.188;2023-07-24T04:24:24;100018.50;;;20.04;97.68
829;BME280;396;52.558;13.188;2023-07-24T04:26:51;100024.88;;;20.12;97.25
829;BME280;396;52.558;13.188;2023-07-24T04:29:18;100030.00;;;20.17;96.62
829;BME280;396;52.558;13.188;2023-07-24T04:31:48;100034.38;;;20.22;94.92
829;BME280;396;52.558;13.188;2023-07-24T04:34:15;100029.25;;;20.20;95.05
829;BME280;396;52.558;13.188;2023-07-24T04:36:43;100026.50;;;20.20;94.59
829;BME280;396;52.558;13.188;2023-07-24T04:39:10;100023.75;;;20.20;95.13
829;BME280;396;52.558;13.188;2023-07-24T04:41:36;100021.84;;;20.24;95.25
829;BME280;396;52.558;13.188;2023-07-24T04:44:03;100017.16;;;20.28;95.01
829;BME280;396;52.558;13.188;2023-07-24T04:46:30;100014.41;;;20.28;94.60
829;BME280;396;52.558;13.188;2023-07-24T04:48:56;100007.78;;;20.36;94.81
829;BME280;396;52.558;13.188;2023-07-24T04:51:23;100005.03;;;20.40;95.53
829;BME280;396;52.558;13.188;2023-07-24T04:53:51;100009.78;;;20.43;97.25
829;BME280;396;52.558;13.188;2023-07-24T04:56:17;100006.66;;;20.45;98.29
829;BME280;396;52.558;13.188;2023-07-24T04:58:44;100014.19;;;20.48;99.39
829;BME280;396;52.558;13.188;2023-07-24T05:01:11;100014.19;;;20.48;99.27
829;BME280;396;52.558;13.188;2023-07-24T05:03:37;100018.06;;;20.47;97.44
829;BME280;396;52.558;13.188;2023-07-24T05:06:04;100007.06;;;20.47;97.18
829;BME280;396;52.558;13.188;2023-07-24T05:08:30;99998.47;;;20.52;95.15
829;BME280;396;52.558;13.188;2023-07-24T05:10:59;100009.94;;;20.61;95.65
829;BME280;396;52.558;13.188;2023-07-24T05:13:25;99993.09;;;20.70;95.11
829;BME280;396;52.558;13.188;2023-07-24T05:15:52;99993.97;;;20.81;91.70
829;BME280;396;52.558;13.188;2023-07-24T05:18:19;99988.53;;;20.95;92.41
829;BME280;396;52.558;13.188;2023-07-24T05:20:46;99983.84;;;21.10;91.60
829;BME280;396;52.558;13.188;2023-07-24T05:23:14;99982.75;;;21.22;90.58
829;BME280;396;52.558;13.188;2023-07-24T05:25:40;99980.78;;;21.29;89.15
829;BME280;396;52.558;13.188;2023-07-24T05:28:08;99983.59;;;21.36;89.18
829;BME280;396;52.558;13.188;2023-07-24T05:30:35;99978.13;;;21.44;88.91
829;BME280;396;52.558;13.188;2023-07-24T05:33:02;99979.28;;;21.46;88.20
829;BME280;396;52.558;13.188;2023-07-24T05:35:29;99973.00;;;21.46;88.02
829;BME280;396;52.558;13.188;2023-07-24T05:37:55;99976.13;;;21.40;90.04
829;BME280;396;52.558;13.188;2023-07-24T05:40:22;99969.81;;;21.36;89.26
829;BME280;396;52.558;13.188;2023-07-24T05:42:49;99977.69;;;21.41;88.21
829;BME280;396;52.558;13.188;2023-07-24T05:45:17;99976.94;;;21.45;87.86
829;BME280;396;52.558;13.188;2023-07-24T05:47:43;99974.56;;;21.47;88.15
829;BME280;396;52.558;13.188;2023-07-24T05:50:10;99962.38;;;21.55;87.92
829;BME280;396;52.558;13.188;2023-07-24T05:52:38;99966.34;;;21.68;87.13
829;BME280;396;52.558;13.188;2023-07-24T05:55:06;99970.69;;;21.76;86.45
829;BME280;396;52.558;13.188;2023-07-24T05:57:32;99959.66;;;21.76;86.79
829;BME280;396;52.558;13.188;2023-07-24T05:59:59;99959.25;;;21.78;87.35
829;BME280;396;52.558;13.188;2023-07-24T06:02:27;99959.28;;;21.81;85.44
829;BME280;396;52.558;13.188;2023-07-24T06:04:53;99957.31;;;21.85;83.87
829;BME280;396;52.558;13.188;2023-07-24T06:07:20;99956.50;;;21.81;85.26
829;BME280;396;52.558;13.188;2023-07-24T06:09:47;99951.78;;;21.82;84.97
829;BME280;396;52.558;13.188;2023-07-24T06:12:13;99954.16;;;21.87;85.23
829;BME280;396;52.558;13.188;2023-07-24T06:14:40;99947.06;;;21.89;84.50
829;BME280;396;52.558;13.188;2023-07-24T06:17:07;99945.09;;;21.86;85.17
829;BME280;396;52.558;13.188;2023-07-24T06:19:35;99951.00;;;21.88;84.78
829;BME280;396;52.558;13.188;2023-07-24T06:22:02;99948.63;;;21.94;84.52
829;BME280;396;52.558;13.188;2023-07-24T06:24:29;99941.97;;;21.91;83.20
829;BME280;396;52.558;13.188;2023-07-24T06:26:55;99938.41;;;21.95;83.31
829;BME280;396;52.558;13.188;2023-07-24T06:29:22;99939.97;;;22.03;82.57
829;BME280;396;52.558;13.188;2023-07-24T06:31:48;99938.00;;;22.10;81.17
829;BME280;396;52.558;13.188;2023-07-24T06:34:15;99933.28;;;22.11;81.87
829;BME280;396;52.558;13.188;2023-07-24T06:36:43;99926.97;;;22.25;81.14
829;BME280;396;52.558;13.188;2023-07-24T06:39:10;99936.03;;;22.29;80.65
829;BME280;396;52.558;13.188;2023-07-24T06:41:36;99934.06;;;22.36;81.14
829;BME280;396;52.558;13.188;2023-07-24T06:44:03;99919.06;;;22.45;80.30
829;BME280;396;52.558;13.188;2023-07-24T06:46:30;99919.81;;;22.52;81.44
829;BME280;396;52.558;13.188;2023-07-24T06:48:56;99923.78;;;22.55;80.63
829;BME280;396;52.558;13.188;2023-07-24T06:51:23;99916.66;;;22.61;79.52
829;BME280;396;52.558;13.188;2023-07-24T06:53:51;99917.41;;;22.72;77.54
829;BME280;396;52.558;13.188;2023-07-24T06:56:17;99918.56;;;22.75;77.78
829;BME280;396;52.558;13.188;2023-07-24T06:58:44;99911.06;;;22.75;78.88
829;BME280;396;52.558;13.188;2023-07-24T07:01:10;99906.72;;;22.81;77.26
829;BME280;396;52.558;13.188;2023-07-24T07:03:37;99903.97;;;22.85;75.51
829;BME280;396;52.558;13.188;2023-07-24T07:06:04;99897.63;;;22.91;74.13
829;BME280;396;52.558;13.188;2023-07-24T07:08:32;99892.44;;;23.01;73.90
829;BME280;396;52.558;13.188;2023-07-24T07:11:00;99905.81;;;23.09;72.74
829;BME280;396;52.558;13.188;2023-07-24T07:13:27;99899.94;;;23.07;72.78
829;BME280;396;52.558;13.188;2023-07-24T07:15:54;99899.91;;;23.11;72.76
829;BME280;396;52.558;13.188;2023-07-24T07:18:21;99888.44;;;23.12;72.25
829;BME280;396;52.558;13.188;2023-07-24T07:20:50;99887.25;;;23.17;73.27
829;BME280;396;52.558;13.188;2023-07-24T07:23:17;99885.19;;;23.28;72.90
829;BME280;396;52.558;13.188;2023-07-24T07:25:44;99887.88;;;23.42;71.28
829;BME280;396;52.558;13.188;2023-07-24T07:28:12;99895.75;;;23.44;70.95
829;BME280;396;52.558;13.188;2023-07-24T07:30:39;99882.66;;;23.55;68.69
829;BME280;396;52.558;13.188;2023-07-24T07:33:06;99897.97;;;23.67;68.96
829;BME280;396;52.558;13.188;2023-07-24T07:35:33;99897.50;;;23.76;70.02
829;BME280;396;52.558;13.188;2023-07-24T07:38:00;99908.59;;;23.72;70.31
829;BME280;396;52.558;13.188;2023-07-24T07:40:26;99902.25;;;23.75;68.38
829;BME280;396;52.558;13.188;2023-07-24T07:42:54;99903.03;;;23.79;67.78
829;BME280;396;52.558;13.188;2023-07-24T07:45:22;99909.28;;;23.87;67.93
829;BME280;396;52.558;13.188;2023-07-24T07:47:49;99913.19;;;23.93;68.58
829;BME280;396;52.558;13.188;2023-07-24T07:50:18;99917.50;;;23.98;68.00
829;BME280;396;52.558;13.188;2023-07-24T07:52:45;99913.91;;;24.01;67.04
829;BME280;396;52.558;13.188;2023-07-24T07:55:11;99908.34;;;24.04;68.94
829;BME280;396;52.558;13.188;2023-07-24T07:57:39;99913.72;;;24.22;68.02
829;BME280;396;52.558;13.188;2023-07-24T08:00:06;99905.69;;;24.35;68.38
829;BME280;396;52.558;13.188;2023-07-24T08:02:34;99916.16;;;24.58;66.51
829;BME280;396;52.558;13.188;2023-07-24T08:05:05;99912.09;;;24.66;65.33
829;BME280;396;52.558;13.188;2023-07-24T08:07:32;99909.25;;;24.70;64.10
829;BME280;396;52.558;13.188;2023-07-24T08:09:59;99900.56;;;24.71;64.73
829;BME280;396;52.558;13.188;2023-07-24T08:12:25;99889.94;;;24.66;64.17
829;BME280;396;52.558;13.188;2023-07-24T08:14:52;99896.19;;;24.70;64.70
829;BME280;396;52.558;13.188;2023-07-24T08:17:19;99888.56;;;24.81;64.04
829;BME280;396;52.558;13.188;2023-07-24T08:19:47;99885.69;;;24.88;63.92
829;BME280;396;52.558;13.188;2023-07-24T08:22:13;99890.31;;;24.99;63.74
829;BME280;396;52.558;13.188;2023-07-24T08:24:40;99889.31;;;25.16;65.81
829;BME280;396;52.558;13.188;2023-07-24T08:27:07;99885.13;;;25.31;62.66
829;BME280;396;52.558;13.188;2023-07-24T08:29:33;99887.13;;;25.31;60.34
829;BME280;396;52.558;13.188;2023-07-24T08:32:01;99875.81;;;25.18;58.76
829;BME280;396;52.558;13.188;2023-07-24T08:34:27;99872.44;;;25.03;58.74
829;BME280;396;52.558;13.188;2023-07-24T08:36:56;99880.44;;;24.98;59.85
829;BME280;396;52.558;13.188;2023-07-24T08:39:22;99867.72;;;25.00;58.52
829;BME280;396;52.558;13.188;2023-07-24T08:41:49;99857.00;;;25.02;60.43
829;BME280;396;52.558;13.188;2023-07-24T08:44:16;99849.06;;;25.04;60.01
829;BME280;396;52.558;13.188;2023-07-24T08:46:44;99858.91;;;25.09;60.35
829;BME280;396;52.558;13.188;2023-07-24T08:49:12;99852.97;;;25.10;60.67
829;BME280;396;52.558;13.188;2023-07-24T08:51:40;99850.97;;;25.11;62.25
829;BME280;396;52.558;13.188;2023-07-24T08:54:09;99841.91;;;25.07;64.43
829;BME280;396;52.558;13.188;2023-07-24T08:56:37;99832.84;;;25.03;63.42
829;BME280;396;52.558;13.188;2023-07-24T08:59:05;99833.56;;;25.10;62.57
829;BME280;396;52.558;13.188;2023-07-24T09:01:32;99832.66;;;25.17;61.25
829;BME280;396;52.558;13.188;2023-07-24T09:03:58;99825.50;;;25.20;62.70
829;BME280;396;52.558;13.188;2023-07-24T09:06:26;99824.59;;;25.26;61.08
829;BME280;396;52.558;13.188;2023-07-24T09:08:54;99822.94;;;25.32;61.36
829;BME280;396;52.558;13.188;2023-07-24T09:11:22;99818.91;;;25.37;62.12
829;BME280;396;52.558;13.188;2023-07-24T09:13:48;99826.59;;;25.49;61.68
829;BME280;396;52.558;13.188;2023-07-24T09:16:23;99824.91;;;25.82;59.60
829;BME280;396;52.558;13.188;2023-07-24T09:18:51;99827.19;;;25.87;59.10
829;BME280;396;52.558;13.188;2023-07-24T09:21:27;99814.09;;;25.88;58.16
829;BME280;396;52.558;13.188;2023-07-24T09:23:55;99813.09;;;25.98;57.66
829;BME280;396;52.558;13.188;2023-07-24T09:26:23;99814.47;;;26.10;58.05
829;BME280;396;52.558;13.188;2023-07-24T09:28:53;99796.91;;;26.16;57.38
829;BME280;396;52.558;13.188;2023-07-24T09:31:20;99802.22;;;26.27;59.37
829;BME280;396;52.558;13.188;2023-07-24T09:33:47;99803.16;;;26.40;58.75
829;BME280;396;52.558;13.188;2023-07-24T09:36:13;99810.50;;;26.51;56.18
829;BME280;396;52.558;13.188;2023-07-24T09:38:41;99811.66;;;26.53;58.24
829;BME280;396;52.558;13.188;2023-07-24T09:41:08;99822.50;;;26.48;59.62
829;BME280;396;52.558;13.188;2023-07-24T09:43:36;99822.13;;;26.46;57.11
829;BME280;396;52.558;13.188;2023-07-24T09:46:04;99811.22;;;26.35;56.51
829;BME280;396;52.558;13.188;2023-07-24T09:48:31;99797.31;;;26.35;57.58
829;BME280;396;52.558;13.188;2023-07-24T09:50:59;99806.06;;;26.33;57.26
829;BME280;396;52.558;13.188;2023-07-24T09:53:32;99798.81;;;26.39;54.43
829;BME280;396;52.558;13.188;2023-07-24T09:56:03;99801.13;;;26.45;54.98
829;BME280;396;52.558;13.188;2023-07-24T09:58:32;99785.94;;;26.49;55.00
829;BME280;396;52.558;13.188;2023-07-24T10:01:02;99779.44;;;26.56;56.94
829;BME280;396;52.558;13.188;2023-07-24T10:03:29;99777.75;;;26.62;56.76
829;BME280;396;52.558;13.188;2023-07-24T10:05:56;99768.78;;;26.54;56.22
829;BME280;396;52.558;13.188;2023-07-24T10:08:24;99766.09;;;26.67;54.80
829;BME280;396;52.558;13.188;2023-07-24T10:10:51;99758.41;;;26.75;55.18
829;BME280;396;52.558;13.188;2023-07-24T10:13:20;99745.63;;;26.77;56.67
829;BME280;396;52.558;13.188;2023-07-24T10:15:48;99745.97;;;26.96;53.80
829;BME280;396;52.558;13.188;2023-07-24T10:18:17;99741.66;;;26.95;54.27
829;BME280;396;52.558;13.188;2023-07-24T10:20:44;99735.22;;;26.98;53.28
829;BME280;396;52.558;13.188;2023-07-24T10:23:16;99735.41;;;27.07;54.51
829;BME280;396;52.558;13.188;2023-07-24T10:25:44;99736.81;;;27.15;52.83
829;BME280;396;52.558;13.188;2023-07-24T10:28:12;99741.78;;;27.24;49.29
829;BME280;396;52.558;13.188;2023-07-24T10:30:41;99727.09;;;27.23;52.33
829;BME280;396;52.558;13.188;2023-07-24T10:33:10;99717.16;;;27.38;51.38
829;BME280;396;52.558;13.188;2023-07-24T10:35:40;99717.97;;;27.68;51.30
829;BME280;396;52.558;13.188;2023-07-24T10:38:06;99705.72;;;27.95;52.37
829;BME280;396;52.558;13.188;2023-07-24T10:40:33;99694.72;;;28.04;50.84
829;BME280;396;52.558;13.188;2023-07-24T10:43:03;99708.84;;;27.97;48.28
829;BME280;396;52.558;13.188;2023-07-24T10:45:41;99699.78;;;27.92;49.63
829;BME280;396;52.558;13.188;2023-07-24T10:48:08;99689.22;;;27.87;48.16
829;BME280;396;52.558;13.188;2023-07-24T10:50:39;99681.22;;;28.02;47.52
829;BME280;396;52.558;13.188;2023-07-24T10:53:07;99681.34;;;28.24;47.98
829;BME280;396;52.558;13.188;2023-07-24T10:55:34;99686.19;;;28.36;46.62
829;BME280;396;52.558;13.188;2023-07-24T10:58:01;99674.50;;;28.41;46.03
829;BME280;396;52.558;13.188;2023-07-24T11:00:27;99661.59;;;28.48;46.85
829;BME280;396;52.558;13.188;2023-07-24T11:02:55;99668.38;;;28.59;48.03
829;BME280;396;52.558;13.188;2023-07-24T11:05:21;99662.94;;;28.56;46.96
829;BME280;396;52.558;13.188;2023-07-24T11:07:50;99667.38;;;28.40;47.77
829;BME280;396;52.558;13.188;2023-07-24T11:10:17;99667.44;;;28.11;46.07
829;BME280;396;52.558;13.188;2023-07-24T11:12:44;99655.06;;;28.00;46.92
829;BME280;396;52.558;13.188;2023-07-24T11:15:12;99651.91;;;27.98;45.93
829;BME280;396;52.558;13.188;2023-07-24T11:17:40;99650.28;;;28.13;45.40
829;BME280;396;52.558;13.188;2023-07-24T11:20:09;99661.63;;;28.06;46.74
829;BME280;396;52.558;13.188;2023-07-24T11:22:38;99647.69;;;27.93;45.68
829;BME280;396;52.558;13.188;2023-07-24T11:25:07;99643.53;;;27.72;47.46
829;BME280;396;52.558;13.188;2023-07-24T11:27:38;99629.00;;;27.64;46.84
829;BME280;396;52.558;13.188;2023-07-24T11:30:07;99628.00;;;27.71;46.94
829;BME280;396;52.558;13.188;2023-07-24T11:32:33;99622.88;;;27.70;47.40
829;BME280;396;52.558;13.188;2023-07-24T11:35:00;99616.81;;;27.75;47.10
829;BME280;396;52.558;13.188;2023-07-24T11:37:28;99614.38;;;27.77;47.36
829;BME280;396;52.558;13.188;2023-07-24T11:39:56;99600.72;;;27.66;48.58
829;BME280;396;52.558;13.188;2023-07-24T11:42:26;99609.72;;;27.57;47.26
829;BME280;396;52.558;13.188;2023-07-24T11:44:53;99603.34;;;27.44;47.94
829;BME280;396;52.558;13.188;2023-07-24T11:47:20;99602.00;;;27.36;47.12
829;BME280;396;52.558;13.188;2023-07-24T11:49:56;99605.59;;;27.20;47.88
829;BME280;396;52.558;13.188;2023-07-24T11:52:23;99621.59;;;27.16;48.04
829;BME280;396;52.558;13.188;2023-07-24T11:54:55;99636.19;;;27.04;48.04
829;BME280;396;52.558;13.188;2023-07-24T11:57:27;99648.69;;;26.96;48.52
829;BME280;396;52.558;13.188;2023-07-24T11:59:54;99691.75;;;26.55;54.68
829;BME280;396;52.558;13.188;2023-07-24T12:02:25;99688.38;;;25.48;63.80
829;BME280;396;52.558;13.188;2023-07-24T12:04:58;99699.22;;;24.37;71.71
829;BME280;396;52.558;13.188;2023-07-24T12:07:30;99715.16;;;23.54;75.44
829;BME280;396;52.558;13.188;2023-07-24T12:09:57;99688.09;;;22.94;82.40
829;BME280;396;52.558;13.188;2023-07-24T12:12:36;99691.28;;;22.22;88.78
829;BME280;396;52.558;13.188;2023-07-24T12:15:04;99664.69;;;21.69;92.29
829;BME280;396;52.558;13.188;2023-07-24T12:17:30;99660.81;;;21.38;94.78
829;BME280;396;52.558;13.188;2023-07-24T12:19:57;99676.97;;;21.22;97.24
829;BME280;396;52.558;13.188;2023-07-24T12:22:24;99671.06;;;21.30;95.83
829;BME280;396;52.558;13.188;2023-07-24T12:24:50;99670.66;;;21.50;95.75
829;BME280;396;52.558;13.188;2023-07-24T12:27:17;99665.66;;;22.25;93.46
829;BME280;396;52.558;13.188;2023-07-24T12:29:45;99677.06;;;23.35;90.86
829;BME280;396;52.558;13.188;2023-07-24T12:32:11;99672.16;;;24.22;82.32
829;BME280;396;52.558;13.188;2023-07-24T12:34:38;99669.69;;;25.05;78.89
829;BME280;396;52.558;13.188;2023-07-24T12:37:05;99679.88;;;25.98;69.78
829;BME280;396;52.558;13.188;2023-07-24T12:39:32;99677.34;;;26.44;67.52
829;BME280;396;52.558;13.188;2023-07-24T12:41:58;99680.03;;;26.47;65.59
829;BME280;396;52.558;13.188;2023-07-24T12:44:25;99671.38;;;26.61;65.21
829;BME280;396;52.558;13.188;2023-07-24T12:46:53;99672.84;;;26.99;63.91
829;BME280;396;52.558;13.188;2023-07-24T12:49:20;99667.78;;;27.42;63.43
829;BME280;396;52.558;13.188;2023-07-24T12:51:47;99663.28;;;27.90;64.23
829;BME280;396;52.558;13.188;2023-07-24T12:54:13;99667.69;;;28.55;64.51
829;BME280;396;52.558;13.188;2023-07-24T12:56:40;99668.25;;;28.50;61.17
829;BME280;396;52.558;13.188;2023-07-24T12:59:07;99663.34;;;28.67;60.31
829;BME280;396;52.558;13.188;2023-07-24T13:01:33;99674.78;;;29.07;59.32
829;BME280;396;52.558;13.188;2023-07-24T13:04:01;99665.97;;;29.44;58.67
829;BME280;396;52.558;13.188;2023-07-24T13:06:28;99669.69;;;30.06;58.64
829;BME280;396;52.558;13.188;2023-07-24T13:08:54;99677.16;;;30.40;56.89
829;BME280;396;52.558;13.188;2023-07-24T13:11:21;99673.22;;;30.60;56.13
829;BME280;396;52.558;13.188;2023-07-24T13:13:48;99674.66;;;29.80;55.93
829;BME280;396;52.558;13.188;2023-07-24T13:16:15;99657.81;;;29.14;59.32
829;BME280;396;52.558;13.188;2023-07-24T13:18:42;99656.00;;;28.73;59.66
829;BME280;396;52.558;13.188;2023-07-24T13:21:10;99647.28;;;28.97;61.67
829;BME280;396;52.558;13.188;2023-07-24T13:23:36;99643.38;;;29.51;61.93
829;BME280;396;52.558;13.188;2023-07-24T13:26:03;99647.84;;;29.48;57.47
829;BME280;396;52.558;13.188;2023-07-24T13:28:30;99640.38;;;29.80;58.87
829;BME280;396;52.558;13.188;2023-07-24T13:30:56;99639.19;;;29.68;57.80